Airfield :
LOGIN :

Register | Disclaimer

   EN    FR    IT 

 










Legend :    VFR   Marginal VFR   IFR   Intensive IFR   Very Intensive IFR
Visi :
Ceiling :
>= 8 km
>= 3000ft
5 to 8 km
1000 to 3000 ft
1500m to 5 km
500 to 1000 ft
800 to 1500m
200 to 500 ft
< 800m
< 200 ft
Symbols :   Thunderstorms  Fog  Heavy snow  Heavy precipitations  Wind > 20 kt
SIGMETs :     Misc.  Thunderstorms  Icing  Turbulence  Mountain Waves  Volcanic Ashes






- Airport Elevation : 481 ft
- IATA code : IVL


EFIV - Ivalo

CURRENT METAR :
  • 312050Z AUTO 22005KT CAVOK 09/08 Q1028

EXPIRED METARs :
  • 312020Z AUTO 21005KT CAVOK 09/08 Q1028
  • 311950Z AUTO 25005KT CAVOK 10/08 Q1027
  • 311920Z AUTO 25006KT 9999 FEW037 10/09 Q1028
  • 311850Z AUTO 25003KT CAVOK 11/09 Q1028
  • 311820Z AUTO 25003KT 220V280 CAVOK 11/09 Q1028
  • 311750Z AUTO 14004KT 120V180 9999 SCT037 11/09 Q1028

Expired Forecast.



MET'MAP, your aeronautical weather chart ! - Copyright ORBIFLY December 2007 - Disclaimer

ORBIFLY MET'MAP TEAM :

Programming & Development : Alexandra Zaïnal
Concept & original design : Baudouin d'Aumeries
Assistance for programming : Marc-Olivier Méhu
Technical & hardware support : Manuel Goepfert

Contact : metmap@orbifly.com




SOURCES & CREDITS :

   NOAA